sensor_id;sensor_type;location;lat;lon;timestamp;P1;durP1;ratioP1;P2;durP2;ratioP2
64674;SDS011;51090;51.512;11.332;2023-08-31T00:01:08;1.10;;;0.50;;
64674;SDS011;51090;51.512;11.332;2023-08-31T00:03:35;1.85;;;0.60;;
64674;SDS011;51090;51.512;11.332;2023-08-31T00:06:01;1.08;;;0.70;;
64674;SDS011;51090;51.512;11.332;2023-08-31T00:08:29;2.78;;;0.80;;
64674;SDS011;51090;51.512;11.332;2023-08-31T00:10:58;1.15;;;0.60;;
64674;SDS011;51090;51.512;11.332;2023-08-31T00:13:25;0.68;;;0.57;;
64674;SDS011;51090;51.512;11.332;2023-08-31T00:15:55;5.00;;;0.80;;
64674;SDS011;51090;51.512;11.332;2023-08-31T00:18:25;1.73;;;0.90;;
64674;SDS011;51090;51.512;11.332;2023-08-31T00:20:51;2.10;;;0.90;;
64674;SDS011;51090;51.512;11.332;2023-08-31T00:23:18;1.00;;;0.60;;
64674;SDS011;51090;51.512;11.332;2023-08-31T00:25:44;1.30;;;0.73;;
64674;SDS011;51090;51.512;11.332;2023-08-31T00:28:12;0.95;;;0.68;;
64674;SDS011;51090;51.512;11.332;2023-08-31T00:30:40;1.05;;;0.80;;
64674;SDS011;51090;51.512;11.332;2023-08-31T00:33:07;0.93;;;0.77;;
64674;SDS011;51090;51.512;11.332;2023-08-31T00:35:33;1.15;;;0.70;;
64674;SDS011;51090;51.512;11.332;2023-08-31T00:37:59;2.13;;;0.80;;
64674;SDS011;51090;51.512;11.332;2023-08-31T00:40:26;1.45;;;0.88;;
64674;SDS011;51090;51.512;11.332;2023-08-31T00:42:57;1.58;;;0.80;;
64674;SDS011;51090;51.512;11.332;2023-08-31T00:45:24;1.65;;;0.98;;
64674;SDS011;51090;51.512;11.332;2023-08-31T00:47:50;1.05;;;0.70;;
64674;SDS011;51090;51.512;11.332;2023-08-31T00:50:16;1.13;;;0.60;;
64674;SDS011;51090;51.512;11.332;2023-08-31T00:52:44;1.92;;;0.60;;
64674;SDS011;51090;51.512;11.332;2023-08-31T00:55:10;1.58;;;0.70;;
64674;SDS011;51090;51.512;11.332;2023-08-31T00:57:36;6.85;;;0.75;;
64674;SDS011;51090;51.512;11.332;2023-08-31T01:00:03;1.55;;;0.60;;
64674;SDS011;51090;51.512;11.332;2023-08-31T01:07:48;1.25;;;0.75;;
64674;SDS011;51090;51.512;11.332;2023-08-31T01:13:07;0.82;;;0.60;;
64674;SDS011;51090;51.512;11.332;2023-08-31T01:15:39;2.45;;;0.75;;
64674;SDS011;51090;51.512;11.332;2023-08-31T01:20:52;0.82;;;0.50;;
64674;SDS011;51090;51.512;11.332;2023-08-31T01:23:49;1.08;;;0.60;;
64674;SDS011;51090;51.512;11.332;2023-08-31T01:26:18;1.13;;;0.60;;
64674;SDS011;51090;51.512;11.332;2023-08-31T01:28:46;1.02;;;0.68;;
64674;SDS011;51090;51.512;11.332;2023-08-31T01:31:13;1.13;;;0.52;;
64674;SDS011;51090;51.512;11.332;2023-08-31T01:33:41;1.20;;;0.70;;
64674;SDS011;51090;51.512;11.332;2023-08-31T01:36:16;0.82;;;0.52;;
64674;SDS011;51090;51.512;11.332;2023-08-31T01:38:57;2.38;;;0.70;;
64674;SDS011;51090;51.512;11.332;2023-08-31T01:41:32;0.70;;;0.50;;
64674;SDS011;51090;51.512;11.332;2023-08-31T01:44:01;1.10;;;0.75;;
64674;SDS011;51090;51.512;11.332;2023-08-31T01:46:29;1.13;;;0.60;;
64674;SDS011;51090;51.512;11.332;2023-08-31T01:48:56;0.70;;;0.60;;
64674;SDS011;51090;51.512;11.332;2023-08-31T01:51:22;0.57;;;0.43;;
64674;SDS011;51090;51.512;11.332;2023-08-31T01:53:48;0.80;;;0.50;;
64674;SDS011;51090;51.512;11.332;2023-08-31T01:56:14;1.25;;;0.75;;
64674;SDS011;51090;51.512;11.332;2023-08-31T01:58:40;1.40;;;0.65;;
64674;SDS011;51090;51.512;11.332;2023-08-31T02:01:06;1.10;;;0.60;;
64674;SDS011;51090;51.512;11.332;2023-08-31T02:03:32;0.98;;;0.85;;
64674;SDS011;51090;51.512;11.332;2023-08-31T02:05:58;1.42;;;0.85;;
64674;SDS011;51090;51.512;11.332;2023-08-31T02:08:24;1.02;;;0.73;;
64674;SDS011;51090;51.512;11.332;2023-08-31T02:10:51;3.70;;;0.80;;
64674;SDS011;51090;51.512;11.332;2023-08-31T02:13:19;0.95;;;0.75;;
64674;SDS011;51090;51.512;11.332;2023-08-31T02:15:45;1.80;;;1.05;;
64674;SDS011;51090;51.512;11.332;2023-08-31T02:18:11;2.22;;;0.82;;
64674;SDS011;51090;51.512;11.332;2023-08-31T02:20:37;2.53;;;1.50;;
64674;SDS011;51090;51.512;11.332;2023-08-31T02:23:03;2.83;;;1.35;;
64674;SDS011;51090;51.512;11.332;2023-08-31T02:25:30;4.15;;;1.33;;
64674;SDS011;51090;51.512;11.332;2023-08-31T02:27:57;4.38;;;1.33;;
64674;SDS011;51090;51.512;11.332;2023-08-31T02:30:23;2.28;;;1.20;;
64674;SDS011;51090;51.512;11.332;2023-08-31T02:32:49;2.78;;;1.27;;
64674;SDS011;51090;51.512;11.332;2023-08-31T02:35:15;1.52;;;1.10;;
64674;SDS011;51090;51.512;11.332;2023-08-31T02:37:41;1.25;;;0.93;;
64674;SDS011;51090;51.512;11.332;2023-08-31T02:40:07;2.90;;;1.33;;
64674;SDS011;51090;51.512;11.332;2023-08-31T02:42:34;4.88;;;1.30;;
64674;SDS011;51090;51.512;11.332;2023-08-31T02:45:00;2.00;;;1.30;;
64674;SDS011;51090;51.512;11.332;2023-08-31T02:47:27;3.22;;;1.15;;
64674;SDS011;51090;51.512;11.332;2023-08-31T02:49:53;2.20;;;1.05;;
64674;SDS011;51090;51.512;11.332;2023-08-31T02:52:19;1.90;;;1.30;;
64674;SDS011;51090;51.512;11.332;2023-08-31T02:54:45;1.50;;;1.20;;
64674;SDS011;51090;51.512;11.332;2023-08-31T02:57:12;1.90;;;1.30;;
64674;SDS011;51090;51.512;11.332;2023-08-31T02:59:38;4.30;;;1.50;;
64674;SDS011;51090;51.512;11.332;2023-08-31T03:02:04;2.45;;;1.52;;
64674;SDS011;51090;51.512;11.332;2023-08-31T03:04:30;1.35;;;1.05;;
64674;SDS011;51090;51.512;11.332;2023-08-31T03:06:56;5.03;;;1.65;;
64674;SDS011;51090;51.512;11.332;2023-08-31T03:09:22;2.25;;;1.20;;
64674;SDS011;51090;51.512;11.332;2023-08-31T03:11:48;2.50;;;1.50;;
64674;SDS011;51090;51.512;11.332;2023-08-31T03:14:14;2.97;;;1.50;;
64674;SDS011;51090;51.512;11.332;2023-08-31T03:16:40;2.35;;;1.30;;
64674;SDS011;51090;51.512;11.332;2023-08-31T03:19:06;2.10;;;1.38;;
64674;SDS011;51090;51.512;11.332;2023-08-31T03:21:32;2.00;;;1.30;;
64674;SDS011;51090;51.512;11.332;2023-08-31T03:23:59;2.90;;;1.63;;
64674;SDS011;51090;51.512;11.332;2023-08-31T03:26:25;2.15;;;1.25;;
64674;SDS011;51090;51.512;11.332;2023-08-31T03:28:51;1.65;;;1.20;;
64674;SDS011;51090;51.512;11.332;2023-08-31T03:31:17;2.15;;;1.33;;
64674;SDS011;51090;51.512;11.332;2023-08-31T03:33:43;2.58;;;1.73;;
64674;SDS011;51090;51.512;11.332;2023-08-31T03:36:09;7.70;;;1.70;;
64674;SDS011;51090;51.512;11.332;2023-08-31T03:38:35;3.72;;;1.60;;
64674;SDS011;51090;51.512;11.332;2023-08-31T03:41:05;3.30;;;1.63;;
64674;SDS011;51090;51.512;11.332;2023-08-31T03:43:31;5.50;;;1.77;;
64674;SDS011;51090;51.512;11.332;2023-08-31T03:45:57;2.38;;;1.60;;
64674;SDS011;51090;51.512;11.332;2023-08-31T03:48:25;2.80;;;1.80;;
64674;SDS011;51090;51.512;11.332;2023-08-31T03:50:54;2.95;;;1.85;;
64674;SDS011;51090;51.512;11.332;2023-08-31T03:53:21;1.98;;;1.42;;
64674;SDS011;51090;51.512;11.332;2023-08-31T03:55:47;3.63;;;1.60;;
64674;SDS011;51090;51.512;11.332;2023-08-31T03:58:13;5.10;;;1.98;;
64674;SDS011;51090;51.512;11.332;2023-08-31T04:00:39;2.10;;;1.58;;
64674;SDS011;51090;51.512;11.332;2023-08-31T04:03:06;5.05;;;1.40;;
64674;SDS011;51090;51.512;11.332;2023-08-31T04:05:34;4.53;;;1.58;;
64674;SDS011;51090;51.512;11.332;2023-08-31T04:08:01;4.40;;;1.83;;
64674;SDS011;51090;51.512;11.332;2023-08-31T04:10:27;4.57;;;2.00;;
64674;SDS011;51090;51.512;11.332;2023-08-31T04:12:56;3.40;;;1.67;;
64674;SDS011;51090;51.512;11.332;2023-08-31T04:15:22;2.40;;;1.50;;
64674;SDS011;51090;51.512;11.332;2023-08-31T04:17:49;5.45;;;1.70;;
64674;SDS011;51090;51.512;11.332;2023-08-31T04:20:15;2.28;;;1.58;;
64674;SDS011;51090;51.512;11.332;2023-08-31T04:22:41;3.00;;;1.67;;
64674;SDS011;51090;51.512;11.332;2023-08-31T04:25:07;3.35;;;1.73;;
64674;SDS011;51090;51.512;11.332;2023-08-31T04:27:33;2.45;;;1.58;;
64674;SDS011;51090;51.512;11.332;2023-08-31T04:30:02;3.63;;;1.60;;
64674;SDS011;51090;51.512;11.332;2023-08-31T04:32:28;2.60;;;1.67;;
64674;SDS011;51090;51.512;11.332;2023-08-31T04:34:54;4.65;;;2.22;;
64674;SDS011;51090;51.512;11.332;2023-08-31T04:37:23;3.65;;;2.08;;
64674;SDS011;51090;51.512;11.332;2023-08-31T04:39:50;4.18;;;2.05;;
64674;SDS011;51090;51.512;11.332;2023-08-31T04:42:16;4.70;;;1.85;;
64674;SDS011;51090;51.512;11.332;2023-08-31T04:44:42;4.88;;;1.98;;
64674;SDS011;51090;51.512;11.332;2023-08-31T04:47:08;6.30;;;1.98;;
64674;SDS011;51090;51.512;11.332;2023-08-31T04:49:34;4.60;;;1.67;;
64674;SDS011;51090;51.512;11.332;2023-08-31T04:52:00;2.00;;;1.48;;
64674;SDS011;51090;51.512;11.332;2023-08-31T04:54:26;3.47;;;2.05;;
64674;SDS011;51090;51.512;11.332;2023-08-31T04:56:52;3.97;;;1.88;;
64674;SDS011;51090;51.512;11.332;2023-08-31T04:59:18;4.43;;;1.95;;
64674;SDS011;51090;51.512;11.332;2023-08-31T05:01:44;4.57;;;2.08;;
64674;SDS011;51090;51.512;11.332;2023-08-31T05:04:10;3.20;;;2.17;;
64674;SDS011;51090;51.512;11.332;2023-08-31T05:06:36;2.90;;;2.22;;
64674;SDS011;51090;51.512;11.332;2023-08-31T05:09:03;9.82;;;2.00;;
64674;SDS011;51090;51.512;11.332;2023-08-31T05:11:31;2.58;;;2.00;;
64674;SDS011;51090;51.512;11.332;2023-08-31T05:13:57;4.75;;;2.20;;
64674;SDS011;51090;51.512;11.332;2023-08-31T05:16:23;4.32;;;2.50;;
64674;SDS011;51090;51.512;11.332;2023-08-31T05:18:49;5.53;;;2.55;;
64674;SDS011;51090;51.512;11.332;2023-08-31T05:21:15;6.97;;;2.53;;
64674;SDS011;51090;51.512;11.332;2023-08-31T05:23:41;8.77;;;1.80;;
64674;SDS011;51090;51.512;11.332;2023-08-31T05:26:07;3.20;;;2.60;;
64674;SDS011;51090;51.512;11.332;2023-08-31T05:28:33;6.18;;;1.98;;
64674;SDS011;51090;51.512;11.332;2023-08-31T05:31:00;4.15;;;2.50;;
64674;SDS011;51090;51.512;11.332;2023-08-31T05:33:28;2.83;;;2.28;;
64674;SDS011;51090;51.512;11.332;2023-08-31T05:35:59;3.55;;;2.00;;
64674;SDS011;51090;51.512;11.332;2023-08-31T05:38:28;3.05;;;2.13;;
64674;SDS011;51090;51.512;11.332;2023-08-31T05:41:00;2.45;;;1.90;;
64674;SDS011;51090;51.512;11.332;2023-08-31T05:43:32;3.35;;;2.00;;
64674;SDS011;51090;51.512;11.332;2023-08-31T05:45:59;2.45;;;1.77;;
64674;SDS011;51090;51.512;11.332;2023-08-31T05:48:25;5.90;;;2.25;;
64674;SDS011;51090;51.512;11.332;2023-08-31T05:50:51;2.88;;;1.73;;
64674;SDS011;51090;51.512;11.332;2023-08-31T05:53:18;3.13;;;1.60;;
64674;SDS011;51090;51.512;11.332;2023-08-31T05:55:44;3.20;;;1.80;;
64674;SDS011;51090;51.512;11.332;2023-08-31T05:58:10;3.70;;;2.20;;
64674;SDS011;51090;51.512;11.332;2023-08-31T06:00:36;2.88;;;1.98;;
64674;SDS011;51090;51.512;11.332;2023-08-31T06:03:03;4.78;;;1.60;;
64674;SDS011;51090;51.512;11.332;2023-08-31T06:05:31;3.28;;;1.75;;
64674;SDS011;51090;51.512;11.332;2023-08-31T06:07:58;3.42;;;2.10;;
64674;SDS011;51090;51.512;11.332;2023-08-31T06:10:24;4.25;;;1.75;;
64674;SDS011;51090;51.512;11.332;2023-08-31T06:12:50;2.30;;;1.50;;
64674;SDS011;51090;51.512;11.332;2023-08-31T06:15:16;2.67;;;1.73;;
64674;SDS011;51090;51.512;11.332;2023-08-31T06:17:44;1.70;;;1.38;;
64674;SDS011;51090;51.512;11.332;2023-08-31T06:20:10;2.08;;;1.45;;
64674;SDS011;51090;51.512;11.332;2023-08-31T06:22:36;2.25;;;1.50;;
64674;SDS011;51090;51.512;11.332;2023-08-31T06:25:02;1.77;;;1.58;;
64674;SDS011;51090;51.512;11.332;2023-08-31T06:27:30;5.88;;;1.42;;
64674;SDS011;51090;51.512;11.332;2023-08-31T06:29:56;5.15;;;1.77;;
64674;SDS011;51090;51.512;11.332;2023-08-31T06:32:22;3.38;;;1.70;;
64674;SDS011;51090;51.512;11.332;2023-08-31T06:34:48;4.32;;;2.13;;
64674;SDS011;51090;51.512;11.332;2023-08-31T06:37:14;3.50;;;1.65;;
64674;SDS011;51090;51.512;11.332;2023-08-31T06:39:40;3.58;;;1.83;;
64674;SDS011;51090;51.512;11.332;2023-08-31T06:42:06;2.90;;;2.10;;
64674;SDS011;51090;51.512;11.332;2023-08-31T06:44:32;4.93;;;2.45;;
64674;SDS011;51090;51.512;11.332;2023-08-31T06:46:59;3.35;;;2.15;;
64674;SDS011;51090;51.512;11.332;2023-08-31T06:49:25;2.95;;;1.95;;
64674;SDS011;51090;51.512;11.332;2023-08-31T06:51:52;4.03;;;2.17;;
64674;SDS011;51090;51.512;11.332;2023-08-31T06:54:19;4.20;;;2.42;;
64674;SDS011;51090;51.512;11.332;2023-08-31T06:56:45;4.85;;;2.67;;
64674;SDS011;51090;51.512;11.332;2023-08-31T06:59:11;3.38;;;2.13;;
64674;SDS011;51090;51.512;11.332;2023-08-31T07:01:37;2.50;;;1.88;;
64674;SDS011;51090;51.512;11.332;2023-08-31T07:04:03;3.45;;;2.40;;
64674;SDS011;51090;51.512;11.332;2023-08-31T07:06:29;3.67;;;2.13;;
64674;SDS011;51090;51.512;11.332;2023-08-31T07:08:56;3.10;;;1.90;;
64674;SDS011;51090;51.512;11.332;2023-08-31T07:11:22;2.90;;;2.10;;
64674;SDS011;51090;51.512;11.332;2023-08-31T07:13:49;5.05;;;2.47;;
64674;SDS011;51090;51.512;11.332;2023-08-31T07:16:14;4.53;;;2.22;;
64674;SDS011;51090;51.512;11.332;2023-08-31T07:18:40;3.55;;;2.13;;
64674;SDS011;51090;51.512;11.332;2023-08-31T07:21:06;4.22;;;2.30;;
64674;SDS011;51090;51.512;11.332;2023-08-31T07:23:33;3.05;;;2.20;;
64674;SDS011;51090;51.512;11.332;2023-08-31T07:25:59;4.72;;;2.25;;
64674;SDS011;51090;51.512;11.332;2023-08-31T07:28:25;5.45;;;2.50;;
64674;SDS011;51090;51.512;11.332;2023-08-31T07:31:01;7.75;;;2.35;;
64674;SDS011;51090;51.512;11.332;2023-08-31T07:33:29;3.42;;;1.60;;
64674;SDS011;51090;51.512;11.332;2023-08-31T07:35:57;5.95;;;1.70;;
64674;SDS011;51090;51.512;11.332;2023-08-31T07:38:23;2.15;;;1.27;;
64674;SDS011;51090;51.512;11.332;2023-08-31T07:40:50;2.72;;;1.10;;
64674;SDS011;51090;51.512;11.332;2023-08-31T07:43:16;3.70;;;1.02;;
64674;SDS011;51090;51.512;11.332;2023-08-31T07:45:42;1.80;;;1.10;;
64674;SDS011;51090;51.512;11.332;2023-08-31T07:48:09;2.35;;;1.00;;
64674;SDS011;51090;51.512;11.332;2023-08-31T07:50:35;2.00;;;1.48;;
64674;SDS011;51090;51.512;11.332;2023-08-31T07:53:01;1.95;;;0.95;;
64674;SDS011;51090;51.512;11.332;2023-08-31T07:55:28;1.88;;;1.30;;
64674;SDS011;51090;51.512;11.332;2023-08-31T07:57:54;1.85;;;1.30;;
64674;SDS011;51090;51.512;11.332;2023-08-31T08:00:20;2.92;;;1.10;;
64674;SDS011;51090;51.512;11.332;2023-08-31T08:02:46;1.98;;;1.30;;
64674;SDS011;51090;51.512;11.332;2023-08-31T08:05:12;1.40;;;0.90;;
64674;SDS011;51090;51.512;11.332;2023-08-31T08:07:38;2.70;;;1.20;;
64674;SDS011;51090;51.512;11.332;2023-08-31T08:10:07;2.10;;;1.02;;
64674;SDS011;51090;51.512;11.332;2023-08-31T08:12:40;1.48;;;0.80;;
64674;SDS011;51090;51.512;11.332;2023-08-31T08:15:11;2.83;;;0.75;;
64674;SDS011;51090;51.512;11.332;2023-08-31T08:17:37;2.58;;;1.38;;
64674;SDS011;51090;51.512;11.332;2023-08-31T08:20:04;1.50;;;0.98;;
64674;SDS011;51090;51.512;11.332;2023-08-31T08:22:31;1.13;;;0.98;;
64674;SDS011;51090;51.512;11.332;2023-08-31T08:24:57;4.28;;;1.42;;
64674;SDS011;51090;51.512;11.332;2023-08-31T08:27:23;2.53;;;1.33;;
64674;SDS011;51090;51.512;11.332;2023-08-31T08:29:49;1.98;;;1.20;;
64674;SDS011;51090;51.512;11.332;2023-08-31T08:32:15;2.72;;;1.95;;
64674;SDS011;51090;51.512;11.332;2023-08-31T08:34:41;2.70;;;1.88;;
64674;SDS011;51090;51.512;11.332;2023-08-31T08:37:06;2.20;;;1.58;;
64674;SDS011;51090;51.512;11.332;2023-08-31T08:39:32;2.75;;;1.65;;
64674;SDS011;51090;51.512;11.332;2023-08-31T08:41:58;4.40;;;1.90;;
64674;SDS011;51090;51.512;11.332;2023-08-31T08:44:24;5.22;;;1.60;;
64674;SDS011;51090;51.512;11.332;2023-08-31T08:46:54;3.50;;;1.88;;
64674;SDS011;51090;51.512;11.332;2023-08-31T08:49:22;3.97;;;1.80;;
64674;SDS011;51090;51.512;11.332;2023-08-31T08:51:49;2.72;;;1.80;;
64674;SDS011;51090;51.512;11.332;2023-08-31T08:54:16;3.13;;;1.70;;
64674;SDS011;51090;51.512;11.332;2023-08-31T08:56:43;2.58;;;1.50;;
64674;SDS011;51090;51.512;11.332;2023-08-31T08:59:09;1.95;;;1.25;;
64674;SDS011;51090;51.512;11.332;2023-08-31T09:01:39;2.00;;;1.17;;
64674;SDS011;51090;51.512;11.332;2023-08-31T09:04:05;1.83;;;1.27;;
64674;SDS011;51090;51.512;11.332;2023-08-31T09:06:34;1.02;;;0.90;;
64674;SDS011;51090;51.512;11.332;2023-08-31T09:09:00;2.00;;;1.02;;
64674;SDS011;51090;51.512;11.332;2023-08-31T09:11:26;3.40;;;1.30;;
64674;SDS011;51090;51.512;11.332;2023-08-31T09:13:52;2.97;;;0.95;;
64674;SDS011;51090;51.512;11.332;2023-08-31T09:16:28;6.25;;;1.40;;
64674;SDS011;51090;51.512;11.332;2023-08-31T09:18:58;4.15;;;1.23;;
64674;SDS011;51090;51.512;11.332;2023-08-31T09:21:37;3.92;;;1.38;;
64674;SDS011;51090;51.512;11.332;2023-08-31T09:24:05;2.10;;;1.20;;
64674;SDS011;51090;51.512;11.332;2023-08-31T09:26:37;1.58;;;0.80;;
64674;SDS011;51090;51.512;11.332;2023-08-31T09:29:04;2.17;;;1.17;;
64674;SDS011;51090;51.512;11.332;2023-08-31T09:31:33;2.47;;;0.90;;
64674;SDS011;51090;51.512;11.332;2023-08-31T09:33:59;3.40;;;0.93;;
64674;SDS011;51090;51.512;11.332;2023-08-31T09:36:26;1.73;;;1.00;;
64674;SDS011;51090;51.512;11.332;2023-08-31T09:38:56;1.55;;;1.13;;
64674;SDS011;51090;51.512;11.332;2023-08-31T09:41:23;1.65;;;1.20;;
64674;SDS011;51090;51.512;11.332;2023-08-31T09:43:49;3.97;;;1.27;;
64674;SDS011;51090;51.512;11.332;2023-08-31T09:46:15;3.78;;;1.20;;
64674;SDS011;51090;51.512;11.332;2023-08-31T09:48:42;2.83;;;1.30;;
64674;SDS011;51090;51.512;11.332;2023-08-31T09:51:12;1.88;;;1.20;;
64674;SDS011;51090;51.512;11.332;2023-08-31T09:53:42;2.67;;;1.40;;
64674;SDS011;51090;51.512;11.332;2023-08-31T09:56:13;2.67;;;1.40;;
64674;SDS011;51090;51.512;11.332;2023-08-31T09:58:45;3.30;;;1.42;;
64674;SDS011;51090;51.512;11.332;2023-08-31T10:01:12;1.90;;;1.00;;
64674;SDS011;51090;51.512;11.332;2023-08-31T10:03:39;0.73;;;0.70;;
64674;SDS011;51090;51.512;11.332;2023-08-31T10:06:05;1.52;;;1.02;;
64674;SDS011;51090;51.512;11.332;2023-08-31T10:08:32;1.30;;;0.77;;
64674;SDS011;51090;51.512;11.332;2023-08-31T10:10:59;1.17;;;0.77;;
64674;SDS011;51090;51.512;11.332;2023-08-31T10:13:28;1.02;;;0.80;;
64674;SDS011;51090;51.512;11.332;2023-08-31T10:16:00;0.50;;;0.47;;
64674;SDS011;51090;51.512;11.332;2023-08-31T10:18:28;1.15;;;0.70;;
64674;SDS011;51090;51.512;11.332;2023-08-31T10:20:55;1.65;;;0.70;;
64674;SDS011;51090;51.512;11.332;2023-08-31T10:23:22;1.73;;;0.60;;
64674;SDS011;51090;51.512;11.332;2023-08-31T10:28:25;1.75;;;0.65;;
64674;SDS011;51090;51.512;11.332;2023-08-31T10:31:05;0.77;;;0.60;;
64674;SDS011;51090;51.512;11.332;2023-08-31T10:33:42;1.55;;;0.38;;
64674;SDS011;51090;51.512;11.332;2023-08-31T10:36:15;2.42;;;0.50;;
64674;SDS011;51090;51.512;11.332;2023-08-31T10:38:47;0.82;;;0.55;;
64674;SDS011;51090;51.512;11.332;2023-08-31T10:41:33;0.98;;;0.50;;
64674;SDS011;51090;51.512;11.332;2023-08-31T10:44:00;1.25;;;0.40;;
64674;SDS011;51090;51.512;11.332;2023-08-31T10:46:28;1.13;;;0.60;;
64674;SDS011;51090;51.512;11.332;2023-08-31T10:48:54;0.70;;;0.50;;
64674;SDS011;51090;51.512;11.332;2023-08-31T10:54:10;0.77;;;0.68;;
64674;SDS011;51090;51.512;11.332;2023-08-31T10:56:51;1.80;;;0.65;;
64674;SDS011;51090;51.512;11.332;2023-08-31T10:59:26;0.30;;;0.30;;
64674;SDS011;51090;51.512;11.332;2023-08-31T11:02:26;0.70;;;0.55;;
64674;SDS011;51090;51.512;11.332;2023-08-31T11:05:14;0.63;;;0.40;;
64674;SDS011;51090;51.512;11.332;2023-08-31T11:07:44;0.68;;;0.38;;
64674;SDS011;51090;51.512;11.332;2023-08-31T11:10:19;1.55;;;0.50;;
64674;SDS011;51090;51.512;11.332;2023-08-31T11:12:50;0.77;;;0.55;;
64674;SDS011;51090;51.512;11.332;2023-08-31T11:15:18;0.30;;;0.30;;
64674;SDS011;51090;51.512;11.332;2023-08-31T11:17:46;2.35;;;0.40;;
64674;SDS011;51090;51.512;11.332;2023-08-31T11:20:18;0.93;;;0.43;;
64674;SDS011;51090;51.512;11.332;2023-08-31T11:22:46;0.75;;;0.65;;
64674;SDS011;51090;51.512;11.332;2023-08-31T11:25:18;0.57;;;0.40;;
64674;SDS011;51090;51.512;11.332;2023-08-31T11:27:57;1.40;;;0.60;;
64674;SDS011;51090;51.512;11.332;2023-08-31T11:30:33;0.77;;;0.45;;
64674;SDS011;51090;51.512;11.332;2023-08-31T11:33:04;0.75;;;0.50;;
64674;SDS011;51090;51.512;11.332;2023-08-31T11:35:37;1.05;;;0.40;;
64674;SDS011;51090;51.512;11.332;2023-08-31T11:38:06;1.33;;;0.47;;
64674;SDS011;51090;51.512;11.332;2023-08-31T11:40:32;2.15;;;0.55;;
64674;SDS011;51090;51.512;11.332;2023-08-31T11:42:58;0.82;;;0.43;;
64674;SDS011;51090;51.512;11.332;2023-08-31T11:45:28;0.77;;;0.28;;
64674;SDS011;51090;51.512;11.332;2023-08-31T11:47:55;0.20;;;0.20;;
64674;SDS011;51090;51.512;11.332;2023-08-31T11:50:21;1.55;;;0.60;;
64674;SDS011;51090;51.512;11.332;2023-08-31T11:52:49;1.27;;;0.30;;
64674;SDS011;51090;51.512;11.332;2023-08-31T11:55:16;0.82;;;0.50;;
64674;SDS011;51090;51.512;11.332;2023-08-31T11:57:52;0.65;;;0.45;;
64674;SDS011;51090;51.512;11.332;2023-08-31T12:00:20;0.68;;;0.30;;
64674;SDS011;51090;51.512;11.332;2023-08-31T12:02:56;0.40;;;0.30;;
64674;SDS011;51090;51.512;11.332;2023-08-31T12:05:26;2.72;;;0.40;;
64674;SDS011;51090;51.512;11.332;2023-08-31T12:07:54;0.93;;;0.60;;
64674;SDS011;51090;51.512;11.332;2023-08-31T12:10:20;2.13;;;0.38;;
64674;SDS011;51090;51.512;11.332;2023-08-31T12:12:46;0.50;;;0.45;;
64674;SDS011;51090;51.512;11.332;2023-08-31T12:15:12;3.35;;;0.40;;
64674;SDS011;51090;51.512;11.332;2023-08-31T12:17:38;0.88;;;0.40;;
64674;SDS011;51090;51.512;11.332;2023-08-31T12:20:04;0.47;;;0.40;;
64674;SDS011;51090;51.512;11.332;2023-08-31T12:22:31;0.77;;;0.47;;
64674;SDS011;51090;51.512;11.332;2023-08-31T12:24:57;0.95;;;0.50;;
64674;SDS011;51090;51.512;11.332;2023-08-31T12:27:23;0.30;;;0.30;;
64674;SDS011;51090;51.512;11.332;2023-08-31T12:29:48;0.63;;;0.30;;
64674;SDS011;51090;51.512;11.332;2023-08-31T12:32:15;0.52;;;0.40;;
64674;SDS011;51090;51.512;11.332;2023-08-31T12:34:44;0.77;;;0.40;;
64674;SDS011;51090;51.512;11.332;2023-08-31T12:37:10;0.65;;;0.35;;
64674;SDS011;51090;51.512;11.332;2023-08-31T12:39:36;4.05;;;0.52;;
64674;SDS011;51090;51.512;11.332;2023-08-31T12:42:02;0.60;;;0.40;;
64674;SDS011;51090;51.512;11.332;2023-08-31T12:44:29;1.38;;;0.57;;
64674;SDS011;51090;51.512;11.332;2023-08-31T12:46:56;0.43;;;0.38;;
64674;SDS011;51090;51.512;11.332;2023-08-31T12:49:21;0.68;;;0.40;;
64674;SDS011;51090;51.512;11.332;2023-08-31T12:51:48;2.83;;;0.35;;
64674;SDS011;51090;51.512;11.332;2023-08-31T12:54:15;0.93;;;0.40;;
64674;SDS011;51090;51.512;11.332;2023-08-31T12:56:41;1.20;;;0.60;;
64674;SDS011;51090;51.512;11.332;2023-08-31T12:59:07;1.60;;;0.57;;
64674;SDS011;51090;51.512;11.332;2023-08-31T13:01:33;1.58;;;0.50;;
64674;SDS011;51090;51.512;11.332;2023-08-31T13:03:58;0.38;;;0.30;;
64674;SDS011;51090;51.512;11.332;2023-08-31T13:06:24;0.65;;;0.40;;
64674;SDS011;51090;51.512;11.332;2023-08-31T13:08:51;0.45;;;0.38;;
64674;SDS011;51090;51.512;11.332;2023-08-31T13:11:17;0.38;;;0.38;;
64674;SDS011;51090;51.512;11.332;2023-08-31T13:13:48;0.20;;;0.20;;
64674;SDS011;51090;51.512;11.332;2023-08-31T13:16:17;0.28;;;0.17;;
64674;SDS011;51090;51.512;11.332;2023-08-31T13:18:44;0.20;;;0.20;;
64674;SDS011;51090;51.512;11.332;2023-08-31T13:21:10;0.47;;;0.20;;
64674;SDS011;51090;51.512;11.332;2023-08-31T13:23:36;0.88;;;0.43;;
64674;SDS011;51090;51.512;11.332;2023-08-31T13:26:02;0.20;;;0.20;;
64674;SDS011;51090;51.512;11.332;2023-08-31T13:28:28;0.65;;;0.45;;
64674;SDS011;51090;51.512;11.332;2023-08-31T13:30:57;0.90;;;0.32;;
64674;SDS011;51090;51.512;11.332;2023-08-31T13:33:25;0.45;;;0.20;;
64674;SDS011;51090;51.512;11.332;2023-08-31T13:35:53;0.43;;;0.30;;
64674;SDS011;51090;51.512;11.332;2023-08-31T13:38:23;0.22;;;0.20;;
64674;SDS011;51090;51.512;11.332;2023-08-31T13:40:53;1.23;;;0.40;;
64674;SDS011;51090;51.512;11.332;2023-08-31T13:43:23;0.38;;;0.32;;
64674;SDS011;51090;51.512;11.332;2023-08-31T13:45:49;0.57;;;0.45;;
64674;SDS011;51090;51.512;11.332;2023-08-31T13:48:15;0.93;;;0.40;;
64674;SDS011;51090;51.512;11.332;2023-08-31T13:50:41;1.40;;;0.50;;
64674;SDS011;51090;51.512;11.332;2023-08-31T13:53:08;0.75;;;0.40;;
64674;SDS011;51090;51.512;11.332;2023-08-31T13:55:34;2.08;;;0.70;;
64674;SDS011;51090;51.512;11.332;2023-08-31T13:58:04;0.43;;;0.30;;
64674;SDS011;51090;51.512;11.332;2023-08-31T14:00:32;0.63;;;0.50;;
64674;SDS011;51090;51.512;11.332;2023-08-31T14:03:01;1.30;;;0.50;;
64674;SDS011;51090;51.512;11.332;2023-08-31T14:05:29;1.33;;;0.55;;
64674;SDS011;51090;51.512;11.332;2023-08-31T14:07:55;0.80;;;0.70;;
64674;SDS011;51090;51.512;11.332;2023-08-31T14:10:23;0.93;;;0.70;;
64674;SDS011;51090;51.512;11.332;2023-08-31T14:12:49;2.58;;;0.60;;
64674;SDS011;51090;51.512;11.332;2023-08-31T14:15:15;1.83;;;0.73;;
64674;SDS011;51090;51.512;11.332;2023-08-31T14:17:41;1.52;;;0.70;;
64674;SDS011;51090;51.512;11.332;2023-08-31T14:20:08;0.55;;;0.40;;
64674;SDS011;51090;51.512;11.332;2023-08-31T14:22:36;1.42;;;0.73;;
64674;SDS011;51090;51.512;11.332;2023-08-31T14:25:07;3.13;;;0.60;;
64674;SDS011;51090;51.512;11.332;2023-08-31T14:27:35;2.00;;;0.57;;
64674;SDS011;51090;51.512;11.332;2023-08-31T14:30:01;0.70;;;0.40;;
64674;SDS011;51090;51.512;11.332;2023-08-31T14:32:27;1.75;;;0.60;;
64674;SDS011;51090;51.512;11.332;2023-08-31T14:34:54;1.73;;;0.80;;
64674;SDS011;51090;51.512;11.332;2023-08-31T14:37:20;0.47;;;0.35;;
64674;SDS011;51090;51.512;11.332;2023-08-31T14:39:46;4.65;;;1.05;;
64674;SDS011;51090;51.512;11.332;2023-08-31T14:42:12;1.17;;;0.60;;
64674;SDS011;51090;51.512;11.332;2023-08-31T14:44:40;1.27;;;0.65;;
64674;SDS011;51090;51.512;11.332;2023-08-31T14:47:06;0.68;;;0.57;;
64674;SDS011;51090;51.512;11.332;2023-08-31T14:49:31;1.58;;;0.57;;
64674;SDS011;51090;51.512;11.332;2023-08-31T14:51:57;1.95;;;0.52;;